Terminal Aerodrome Forecast
Issued by NWS

Home | Current Version | Previous Version | Text Only | Print | Product List | Glossary On
Versions: 1 2 3 4 5 6 7 8 9 10 11 12 13 14
444
FTUS43 KPAH 030520
TAFCGI
TAF
KCGI 030520Z 0306/0406 23012KT P6SM SKC
     FM031400 26012G19KT P6SM OVC025
     FM040000 30006KT P6SM BKN030=

USA.gov is the U.S. government's official web portal to all federal, state and local government web resources and services.